createdAt,value
2022-11-26T00:00:16.262Z,16.10
2022-11-26T00:02:43.780Z,16.38
2022-11-26T00:05:13.694Z,15.52
2022-11-26T00:07:41.940Z,16.70
2022-11-26T00:10:35.500Z,16.90
2022-11-26T00:13:03.163Z,16.83
2022-11-26T00:15:32.049Z,15.40
2022-11-26T00:17:59.378Z,17.70
2022-11-26T00:20:31.260Z,16.58
2022-11-26T00:22:59.409Z,16.98
2022-11-26T00:25:28.218Z,17.90
2022-11-26T00:27:56.716Z,16.55
2022-11-26T00:30:25.578Z,16.85
2022-11-26T00:32:53.606Z,15.73
2022-11-26T00:35:21.417Z,16.10
2022-11-26T00:37:50.056Z,15.55
2022-11-26T00:40:22.496Z,14.75
2022-11-26T00:42:49.922Z,16.65
2022-11-26T00:45:18.441Z,16.17
2022-11-26T00:47:45.802Z,17.25
2022-11-26T00:50:17.503Z,16.48
2022-11-26T00:52:45.247Z,15.80
2022-11-26T00:55:39.057Z,16.23
2022-11-26T00:58:07.176Z,17.42
2022-11-26T01:00:35.930Z,17.55
2022-11-26T01:03:03.412Z,16.30
2022-11-26T01:05:33.651Z,16.20
2022-11-26T01:08:03.091Z,16.55
2022-11-26T01:10:30.882Z,16.77
2022-11-26T01:12:58.305Z,17.30
2022-11-26T01:15:27.422Z,15.52
2022-11-26T01:17:55.202Z,16.65
2022-11-26T01:20:27.248Z,16.02
2022-11-26T01:22:55.473Z,17.42
2022-11-26T01:25:23.829Z,16.02
2022-11-26T01:27:51.183Z,16.58
2022-11-26T01:30:25.764Z,16.60
2022-11-26T01:32:53.549Z,17.73
2022-11-26T01:35:22.098Z,16.38
2022-11-26T01:37:49.965Z,16.15
2022-11-26T01:40:26.445Z,16.90
2022-11-26T01:43:00.083Z,17.63
2022-11-26T01:45:27.583Z,17.20
2022-11-26T01:47:54.950Z,18.88
2022-11-26T01:50:34.564Z,17.02
2022-11-26T01:53:07.475Z,17.25
2022-11-26T01:55:40.727Z,15.90
2022-11-26T01:58:11.316Z,17.80
2022-11-26T02:00:38.696Z,17.90
2022-11-26T02:03:06.616Z,17.00
2022-11-26T02:05:37.016Z,17.33
2022-11-26T02:08:04.775Z,16.35
2022-11-26T02:10:34.736Z,17.38
2022-11-26T02:13:02.138Z,17.55
2022-11-26T02:15:34.664Z,17.50
2022-11-26T02:18:04.432Z,17.48
2022-11-26T02:20:44.059Z,17.17
2022-11-26T02:23:17.728Z,17.35
2022-11-26T02:25:45.074Z,16.35
2022-11-26T02:28:18.478Z,17.98
2022-11-26T02:30:50.608Z,16.92
2022-11-26T02:33:21.184Z,17.85
2022-11-26T02:35:50.594Z,17.90
2022-11-26T02:38:20.453Z,18.50
2022-11-26T02:40:47.860Z,17.90
2022-11-26T02:43:16.438Z,18.15
2022-11-26T02:45:46.545Z,16.85
2022-11-26T02:48:19.548Z,17.10
2022-11-26T02:50:48.757Z,16.33
2022-11-26T02:53:17.650Z,17.17
2022-11-26T02:55:47.752Z,16.70
2022-11-26T02:58:15.631Z,17.38
2022-11-26T03:00:43.842Z,16.23
2022-11-26T03:03:23.312Z,17.35
2022-11-26T03:05:55.936Z,17.55
2022-11-26T03:08:23.724Z,16.67
2022-11-26T03:10:51.079Z,16.40
2022-11-26T03:13:18.497Z,16.92
2022-11-26T03:15:48.470Z,16.20
2022-11-26T03:18:16.146Z,14.90
2022-11-26T03:20:43.630Z,16.75
2022-11-26T03:23:11.230Z,16.38
2022-11-26T03:25:38.748Z,16.08
2022-11-26T03:28:06.099Z,18.45
2022-11-26T03:30:33.497Z,18.13
2022-11-26T03:33:00.982Z,17.38
2022-11-26T03:35:28.404Z,18.27
2022-11-26T03:37:55.907Z,17.73
2022-11-26T03:40:23.427Z,21.00
2022-11-26T03:42:50.769Z,21.75
2022-11-26T03:45:18.316Z,21.15
2022-11-26T03:47:45.658Z,19.75
2022-11-26T03:50:13.289Z,19.88
2022-11-26T03:52:40.685Z,20.17
2022-11-26T03:55:08.290Z,18.02
2022-11-26T03:57:35.620Z,17.75
2022-11-26T04:00:03.240Z,17.00
2022-11-26T04:02:30.566Z,18.13
2022-11-26T04:04:57.883Z,15.15
2022-11-26T04:07:25.303Z,17.95
2022-11-26T04:09:52.822Z,15.90
2022-11-26T04:12:20.142Z,17.08
2022-11-26T04:14:47.482Z,18.88
2022-11-26T04:17:17.257Z,18.65
2022-11-26T04:19:44.575Z,16.42
2022-11-26T04:22:11.888Z,16.75
2022-11-26T04:24:39.782Z,17.38
2022-11-26T04:27:07.494Z,16.67
2022-11-26T04:29:36.627Z,16.30
2022-11-26T04:32:04.505Z,15.63
2022-11-26T04:34:32.051Z,15.80
2022-11-26T04:36:59.466Z,16.95
2022-11-26T04:39:26.807Z,15.43
2022-11-26T04:41:54.116Z,15.10
2022-11-26T04:44:21.696Z,14.20
2022-11-26T04:46:48.982Z,15.10
2022-11-26T04:49:16.340Z,13.90
2022-11-26T04:51:43.758Z,13.95
2022-11-26T04:54:13.217Z,14.73
2022-11-26T04:56:40.733Z,12.77
2022-11-26T04:59:08.357Z,13.32
2022-11-26T05:01:35.996Z,13.20
2022-11-26T05:04:03.402Z,13.35
2022-11-26T05:06:30.829Z,12.65
2022-11-26T05:08:58.199Z,13.27
2022-11-26T05:11:25.738Z,14.07
2022-11-26T05:13:53.103Z,13.25
2022-11-26T05:16:20.719Z,12.88
2022-11-26T05:18:48.143Z,12.35
2022-11-26T05:21:15.535Z,13.55
2022-11-26T05:23:42.988Z,14.00
2022-11-26T05:26:10.632Z,14.07
2022-11-26T05:28:38.071Z,13.45
2022-11-26T05:31:05.620Z,13.52
2022-11-26T05:33:32.951Z,14.38
2022-11-26T05:36:00.483Z,11.95
2022-11-26T05:38:28.000Z,13.70
2022-11-26T05:40:55.753Z,13.15
2022-11-26T05:43:23.582Z,14.15
2022-11-26T05:45:50.957Z,13.50
2022-11-26T05:48:18.337Z,13.10
2022-11-26T05:50:48.945Z,14.38
2022-11-26T05:53:18.825Z,14.15
2022-11-26T05:55:46.360Z,15.15
2022-11-26T05:58:13.680Z,12.85
2022-11-26T06:00:41.171Z,13.52
2022-11-26T06:03:08.615Z,16.17
2022-11-26T06:05:36.187Z,14.80
2022-11-26T06:08:03.604Z,14.13
2022-11-26T06:10:31.015Z,14.15
2022-11-26T06:12:58.357Z,13.73
2022-11-26T06:15:25.749Z,13.10
2022-11-26T06:17:53.054Z,13.18
2022-11-26T06:20:20.448Z,12.55
2022-11-26T06:22:47.840Z,12.70
2022-11-26T06:25:15.398Z,14.05
2022-11-26T06:27:42.977Z,13.38
2022-11-26T06:30:11.489Z,14.85
2022-11-26T06:32:38.943Z,15.63
2022-11-26T06:35:06.461Z,16.25
2022-11-26T06:37:33.804Z,14.32
2022-11-26T06:40:01.342Z,14.68
2022-11-26T06:42:29.778Z,13.43
2022-11-26T06:44:59.999Z,14.73
2022-11-26T06:47:27.658Z,14.70
2022-11-26T06:49:55.017Z,15.00
2022-11-26T06:52:22.342Z,14.35
2022-11-26T06:54:50.323Z,18.80
2022-11-26T06:57:17.830Z,15.85
2022-11-26T06:59:45.225Z,16.15
2022-11-26T07:02:12.579Z,16.30
2022-11-26T07:04:40.128Z,17.85
2022-11-26T07:07:07.748Z,15.57
2022-11-26T07:09:35.363Z,14.73
2022-11-26T07:12:02.700Z,15.20
2022-11-26T07:14:30.006Z,14.73
2022-11-26T07:16:57.480Z,14.52
2022-11-26T07:19:25.612Z,14.60
2022-11-26T07:21:53.022Z,16.40
2022-11-26T07:24:20.366Z,14.48
2022-11-26T07:26:47.869Z,14.80
2022-11-26T07:29:16.258Z,14.45
2022-11-26T07:31:43.692Z,14.70
2022-11-26T07:34:11.072Z,13.32
2022-11-26T07:36:43.209Z,14.02
2022-11-26T07:39:11.844Z,13.57
2022-11-26T07:41:39.325Z,13.40
2022-11-26T07:44:06.747Z,15.57
2022-11-26T07:46:34.396Z,18.20
2022-11-26T07:49:01.720Z,16.00
2022-11-26T07:51:30.510Z,15.68
2022-11-26T07:53:58.708Z,14.85
2022-11-26T07:56:26.616Z,15.80
2022-11-26T07:58:54.297Z,15.57
2022-11-26T08:01:23.298Z,13.57
2022-11-26T08:03:51.908Z,13.70
2022-11-26T08:06:20.847Z,12.43
2022-11-26T08:08:48.277Z,13.43
2022-11-26T08:11:16.964Z,12.20
2022-11-26T08:13:44.702Z,13.52
2022-11-26T08:16:12.588Z,12.77
2022-11-26T08:18:40.416Z,12.70
2022-11-26T08:21:07.901Z,12.98
2022-11-26T08:23:35.661Z,14.02
2022-11-26T08:26:24.003Z,13.07
2022-11-26T08:28:53.529Z,12.95
2022-11-26T08:31:21.325Z,13.63
2022-11-26T08:33:48.783Z,14.50
2022-11-26T08:36:16.258Z,13.65
2022-11-26T08:38:43.768Z,13.40
2022-11-26T08:41:12.098Z,14.70
2022-11-26T08:44:05.149Z,13.80
2022-11-26T08:46:27.314Z,13.50
2022-11-26T08:48:58.629Z,14.50
2022-11-26T08:51:26.404Z,13.88
2022-11-26T08:53:53.747Z,13.13
2022-11-26T08:56:21.159Z,13.55
2022-11-26T08:58:49.322Z,13.05
2022-11-26T09:01:18.026Z,13.85
2022-11-26T09:03:45.725Z,13.73
2022-11-26T09:06:13.065Z,14.05
2022-11-26T09:08:59.646Z,13.88
2022-11-26T09:11:27.404Z,14.15
2022-11-26T09:13:55.039Z,13.07
2022-11-26T09:16:25.393Z,13.65
2022-11-26T09:18:53.232Z,14.63
2022-11-26T09:21:20.979Z,14.98
2022-11-26T09:23:48.485Z,14.70
2022-11-26T09:26:15.748Z,14.65
2022-11-26T09:28:43.447Z,14.40
2022-11-26T09:31:10.722Z,14.85
2022-11-26T09:33:38.455Z,15.15
2022-11-26T09:36:07.148Z,15.32
2022-11-26T09:38:34.952Z,16.60
2022-11-26T09:41:20.367Z,16.88
2022-11-26T09:43:53.756Z,14.60
2022-11-26T09:46:25.546Z,15.10
2022-11-26T09:48:54.903Z,15.70
2022-11-26T09:51:22.460Z,14.63
2022-11-26T09:53:51.141Z,15.80
2022-11-26T09:56:22.128Z,14.35
2022-11-26T09:58:58.016Z,14.82
2022-11-26T10:01:25.587Z,15.48
2022-11-26T10:03:53.443Z,14.50
2022-11-26T10:06:20.734Z,16.25
2022-11-26T10:08:51.153Z,16.75
2022-11-26T10:11:36.987Z,13.85
2022-11-26T10:14:24.616Z,16.02
2022-11-26T10:16:52.022Z,15.77
2022-11-26T10:19:23.746Z,12.73
2022-11-26T10:22:00.252Z,12.75
2022-11-26T10:24:31.001Z,13.70
2022-11-26T10:27:00.496Z,13.68
2022-11-26T10:29:33.757Z,13.57
2022-11-26T10:32:06.144Z,14.77
2022-11-26T10:34:43.010Z,13.52
2022-11-26T10:37:10.684Z,14.23
2022-11-26T10:39:38.123Z,12.20
2022-11-26T10:42:12.184Z,12.40
2022-11-26T10:44:41.150Z,13.18
2022-11-26T10:47:21.764Z,13.18
2022-11-26T10:49:50.192Z,11.27
2022-11-26T10:52:20.081Z,12.85
2022-11-26T10:54:47.501Z,16.83
2022-11-26T10:57:20.574Z,13.77
2022-11-26T10:59:52.116Z,14.13
2022-11-26T11:02:30.392Z,9.73
2022-11-26T11:05:03.687Z,9.82
2022-11-26T11:07:38.061Z,11.05
2022-11-26T11:10:07.028Z,9.53
2022-11-26T11:12:34.889Z,9.30
2022-11-26T11:15:31.639Z,8.68
2022-11-26T11:18:01.197Z,7.35
2022-11-26T11:20:28.601Z,8.80
2022-11-26T11:23:00.709Z,9.52
2022-11-26T11:25:30.966Z,9.45
2022-11-26T11:28:24.720Z,8.85
2022-11-26T11:31:04.064Z,10.88
2022-11-26T11:33:32.227Z,9.25
2022-11-26T11:35:59.814Z,8.85
2022-11-26T11:38:28.836Z,8.68
2022-11-26T11:40:56.376Z,8.98
2022-11-26T11:43:24.873Z,10.05
2022-11-26T11:45:58.630Z,9.35
2022-11-26T11:48:47.062Z,9.60
2022-11-26T11:51:20.148Z,10.45
2022-11-26T11:53:53.555Z,10.43
2022-11-26T11:56:35.000Z,9.50
2022-11-26T11:59:17.525Z,9.10
2022-11-26T12:02:03.339Z,8.88
2022-11-26T12:04:37.057Z,9.80
2022-11-26T12:07:14.396Z,10.15
2022-11-26T12:09:47.355Z,10.73
2022-11-26T12:12:25.733Z,9.82
2022-11-26T12:14:56.747Z,10.18
2022-11-26T12:17:26.740Z,9.35
2022-11-26T12:20:22.814Z,9.85
2022-11-26T12:22:52.614Z,8.75
2022-11-26T12:25:33.552Z,9.57
2022-11-26T12:28:17.468Z,8.48
2022-11-26T12:30:49.545Z,9.45
2022-11-26T12:33:20.813Z,8.85
2022-11-26T12:35:59.943Z,10.27
2022-11-26T12:38:38.865Z,9.07
2022-11-26T12:41:10.408Z,9.90
2022-11-26T12:43:54.283Z,11.48
2022-11-26T12:46:28.102Z,10.70
2022-11-26T12:48:59.886Z,9.90
2022-11-26T12:51:30.418Z,9.10
2022-11-26T12:54:03.959Z,9.48
2022-11-26T12:56:37.786Z,9.80
2022-11-26T12:59:18.781Z,9.52
2022-11-26T13:01:46.255Z,9.68
2022-11-26T13:04:36.713Z,9.65
2022-11-26T13:07:01.310Z,10.55
2022-11-26T13:09:43.844Z,9.40
2022-11-26T13:12:30.035Z,9.68
2022-11-26T13:15:00.351Z,9.10
2022-11-26T13:17:47.470Z,9.68
2022-11-26T13:20:33.287Z,10.25
2022-11-26T13:23:06.827Z,11.55
2022-11-26T13:25:39.731Z,11.52
2022-11-26T13:28:33.435Z,10.07
2022-11-26T13:31:19.709Z,10.00
2022-11-26T13:33:47.034Z,10.00
2022-11-26T13:36:17.259Z,9.07
2022-11-26T13:39:01.889Z,8.90
2022-11-26T13:41:38.114Z,9.52
2022-11-26T13:44:07.078Z,8.85
2022-11-26T13:46:56.311Z,9.10
2022-11-26T13:49:27.495Z,8.25
2022-11-26T13:52:17.413Z,8.35
2022-11-26T13:54:44.689Z,9.68
2022-11-26T13:57:17.073Z,8.48
2022-11-26T13:59:50.074Z,8.60
2022-11-26T14:02:36.900Z,10.27
2022-11-26T14:05:07.549Z,8.70
2022-11-26T14:07:35.079Z,9.13
2022-11-26T14:10:04.011Z,9.18
2022-11-26T14:13:00.814Z,8.57
2022-11-26T14:15:48.469Z,7.05
2022-11-26T14:18:20.450Z,9.25
2022-11-26T14:21:00.699Z,9.40
2022-11-26T14:23:47.664Z,8.15
2022-11-26T14:26:17.612Z,8.38
2022-11-26T14:28:45.142Z,7.65
2022-11-26T14:31:16.485Z,7.72
2022-11-26T14:33:46.739Z,7.15
2022-11-26T14:36:32.712Z,8.38
2022-11-26T14:39:13.830Z,7.63
2022-11-26T14:41:44.207Z,7.65
2022-11-26T14:44:12.865Z,7.97
2022-11-26T14:46:41.617Z,6.55
2022-11-26T14:49:35.278Z,6.38
2022-11-26T14:52:03.386Z,6.65
2022-11-26T14:54:34.892Z,7.07
2022-11-26T14:57:11.759Z,7.85
2022-11-26T14:59:54.984Z,7.63
2022-11-26T15:02:23.241Z,7.45
2022-11-26T15:05:09.570Z,6.80
2022-11-26T15:07:37.022Z,6.70
2022-11-26T15:10:07.866Z,5.75
2022-11-26T15:12:36.260Z,6.30
2022-11-26T15:15:04.230Z,6.15
2022-11-26T15:17:32.676Z,6.95
2022-11-26T15:20:02.075Z,6.93
2022-11-26T15:22:29.429Z,10.70
2022-11-26T15:24:58.022Z,8.57
2022-11-26T15:27:29.656Z,8.05
2022-11-26T15:29:57.255Z,7.22
2022-11-26T15:32:28.861Z,7.00
2022-11-26T15:34:57.925Z,6.57
2022-11-26T15:37:25.270Z,6.63
2022-11-26T15:40:08.803Z,5.45
2022-11-26T15:42:36.261Z,6.25
2022-11-26T15:45:03.869Z,5.57
2022-11-26T15:47:31.307Z,6.28
2022-11-26T15:50:01.067Z,7.22
2022-11-26T15:52:35.589Z,7.20
2022-11-26T15:55:13.711Z,7.10
2022-11-26T15:57:42.109Z,6.53
2022-11-26T16:00:21.431Z,7.32
2022-11-26T16:02:48.897Z,6.22
2022-11-26T16:05:32.152Z,6.18
2022-11-26T16:08:06.956Z,5.85
2022-11-26T16:10:40.853Z,6.15
2022-11-26T16:13:14.394Z,6.15
2022-11-26T16:16:08.841Z,5.50
2022-11-26T16:18:45.303Z,5.63
2022-11-26T16:21:27.949Z,6.20
2022-11-26T16:23:58.680Z,6.13
2022-11-26T16:26:26.491Z,8.63
2022-11-26T16:28:54.081Z,7.78
2022-11-26T16:31:22.230Z,7.35
2022-11-26T16:33:49.904Z,6.55
2022-11-26T16:36:17.197Z,7.40
2022-11-26T16:38:44.870Z,8.13
2022-11-26T16:41:13.210Z,9.20
2022-11-26T16:43:40.859Z,7.28
2022-11-26T16:46:16.099Z,6.60
2022-11-26T16:51:13.571Z,6.25
2022-11-26T16:53:40.975Z,5.53
2022-11-26T16:56:12.249Z,4.68
2022-11-26T16:58:39.655Z,4.10
2022-11-26T17:01:07.315Z,5.10
2022-11-26T17:03:35.001Z,5.55
2022-11-26T17:06:03.975Z,6.88
2022-11-26T17:08:31.724Z,5.28
2022-11-26T17:10:59.172Z,5.38
2022-11-26T17:13:29.017Z,4.68
2022-11-26T17:15:56.836Z,3.70
2022-11-26T17:18:25.402Z,5.85
2022-11-26T17:20:54.068Z,5.03
2022-11-26T17:23:21.678Z,5.18
2022-11-26T17:25:53.453Z,4.13
2022-11-26T17:28:21.428Z,4.00
2022-11-26T17:30:48.782Z,4.40
2022-11-26T17:33:16.232Z,4.72
2022-11-26T17:35:43.539Z,4.40
2022-11-26T17:38:19.371Z,5.13
2022-11-26T17:40:47.173Z,5.07
2022-11-26T17:43:15.005Z,5.57
2022-11-26T17:45:42.428Z,4.90
2022-11-26T17:48:14.346Z,5.10
2022-11-26T17:50:41.823Z,4.75
2022-11-26T17:53:09.317Z,5.63
2022-11-26T17:55:36.864Z,4.60
2022-11-26T17:58:04.548Z,4.18
2022-11-26T18:00:32.018Z,4.40
2022-11-26T18:02:59.514Z,4.57
2022-11-26T18:05:27.380Z,4.50
2022-11-26T18:07:54.944Z,5.15
2022-11-26T18:10:23.270Z,5.50
2022-11-26T18:12:52.892Z,6.80
2022-11-26T18:15:22.261Z,6.20
2022-11-26T18:17:51.145Z,6.32
2022-11-26T18:20:19.957Z,6.07
2022-11-26T18:22:47.427Z,6.57
2022-11-26T18:25:14.916Z,6.10
2022-11-26T18:27:42.458Z,6.22
2022-11-26T18:30:10.000Z,7.63
2022-11-26T18:32:40.304Z,8.45
2022-11-26T18:35:08.099Z,7.32
2022-11-26T18:37:36.207Z,7.43
2022-11-26T18:40:04.157Z,6.93
2022-11-26T18:42:39.023Z,6.15
2022-11-26T18:45:11.933Z,7.38
2022-11-26T18:47:39.376Z,6.53
2022-11-26T18:50:07.304Z,6.03
2022-11-26T18:52:34.647Z,6.65
2022-11-26T18:55:05.201Z,5.97
2022-11-26T18:57:33.117Z,5.40
2022-11-26T19:00:00.729Z,5.30
2022-11-26T19:02:28.255Z,5.28
2022-11-26T19:04:55.645Z,5.00
2022-11-26T19:07:23.174Z,5.38
2022-11-26T19:09:50.936Z,4.40
2022-11-26T19:12:18.337Z,4.55
2022-11-26T19:14:45.730Z,5.18
2022-11-26T19:17:13.117Z,5.50
2022-11-26T19:19:40.715Z,5.07
2022-11-26T19:22:08.187Z,4.43
2022-11-26T19:24:35.686Z,5.85
2022-11-26T19:27:03.042Z,4.93
2022-11-26T19:29:30.906Z,5.47
2022-11-26T19:31:58.500Z,6.15
2022-11-26T19:34:26.027Z,4.90
2022-11-26T19:36:57.847Z,5.93
2022-11-26T19:39:25.368Z,6.05
2022-11-26T19:41:52.686Z,6.25
2022-11-26T19:44:20.069Z,6.07
2022-11-26T19:46:48.392Z,5.10
2022-11-26T19:49:15.961Z,6.13
2022-11-26T19:51:43.335Z,8.20
2022-11-26T19:54:10.925Z,6.43
2022-11-26T19:56:38.393Z,6.32
2022-11-26T19:59:05.990Z,5.82
2022-11-26T20:01:34.507Z,5.97
2022-11-26T20:04:04.244Z,5.85
2022-11-26T20:06:32.525Z,8.90
2022-11-26T20:08:59.879Z,10.77
2022-11-26T20:11:27.949Z,9.55
2022-11-26T20:13:56.294Z,9.10
2022-11-26T20:16:25.424Z,9.82
2022-11-26T20:18:52.999Z,9.63
2022-11-26T20:21:21.632Z,8.77
2022-11-26T20:23:49.884Z,9.73
2022-11-26T20:26:23.248Z,9.27
2022-11-26T20:28:50.963Z,8.20
2022-11-26T20:31:23.564Z,10.10
2022-11-26T20:33:53.085Z,10.23
2022-11-26T20:36:23.102Z,11.32
2022-11-26T20:38:54.639Z,12.40
2022-11-26T20:41:22.692Z,13.60
2022-11-26T20:43:54.939Z,12.10
2022-11-26T20:46:25.955Z,12.82
2022-11-26T20:48:53.410Z,13.52
2022-11-26T20:51:22.447Z,15.68
2022-11-26T20:53:50.919Z,15.20
2022-11-26T20:56:19.453Z,17.88
2022-11-26T20:58:46.960Z,16.50
2022-11-26T21:01:22.212Z,17.30
2022-11-26T21:06:17.717Z,14.77
2022-11-26T21:08:45.263Z,12.88
2022-11-26T21:11:13.161Z,14.45
2022-11-26T21:13:41.172Z,14.63
2022-11-26T21:16:10.781Z,12.55
2022-11-26T21:18:38.589Z,14.70
2022-11-26T21:21:09.780Z,13.90
2022-11-26T21:23:40.828Z,14.63
2022-11-26T21:26:12.660Z,13.15
2022-11-26T21:28:39.989Z,12.98
2022-11-26T21:31:26.110Z,12.68
2022-11-26T21:33:57.200Z,11.55
2022-11-26T21:36:25.025Z,13.10
2022-11-26T21:38:52.654Z,14.43
2022-11-26T21:41:20.421Z,13.00
2022-11-26T21:43:48.097Z,12.75
2022-11-26T21:46:17.170Z,11.82
2022-11-26T21:48:44.575Z,17.25
2022-11-26T21:51:17.694Z,13.02
2022-11-26T21:53:45.352Z,13.13
2022-11-26T21:56:18.778Z,13.32
2022-11-26T21:58:46.586Z,14.27
2022-11-26T22:01:15.579Z,12.23
2022-11-26T22:03:43.803Z,14.52
2022-11-26T22:06:11.813Z,12.43
2022-11-26T22:08:39.541Z,13.48
2022-11-26T22:11:14.758Z,13.45
2022-11-26T22:13:42.584Z,13.23
2022-11-26T22:16:10.574Z,11.32
2022-11-26T22:18:41.776Z,13.88
2022-11-26T22:21:11.668Z,12.60
2022-11-26T22:23:39.000Z,13.15
2022-11-26T22:26:06.427Z,14.20
2022-11-26T22:28:34.027Z,15.63
2022-11-26T22:31:08.731Z,14.43
2022-11-26T22:33:36.096Z,14.05
2022-11-26T22:36:03.629Z,20.42
2022-11-26T22:38:32.351Z,18.17
2022-11-26T22:41:03.647Z,22.40
2022-11-26T22:43:31.681Z,22.10
2022-11-26T22:45:59.475Z,20.95
2022-11-26T22:48:26.992Z,19.00
2022-11-26T22:50:55.114Z,20.27
2022-11-26T22:53:23.141Z,21.20
2022-11-26T22:55:51.609Z,21.58
2022-11-26T22:58:19.531Z,22.98
2022-11-26T23:00:46.883Z,20.05
2022-11-26T23:03:14.349Z,21.73
2022-11-26T23:05:41.957Z,21.77
2022-11-26T23:08:09.287Z,20.45
2022-11-26T23:10:36.780Z,21.23
2022-11-26T23:13:04.438Z,19.38
2022-11-26T23:15:31.802Z,21.27
2022-11-26T23:17:59.430Z,22.58
2022-11-26T23:20:26.820Z,20.85
2022-11-26T23:22:54.218Z,20.10
2022-11-26T23:25:21.623Z,22.85
2022-11-26T23:27:49.141Z,21.27
2022-11-26T23:30:16.633Z,21.10
2022-11-26T23:32:44.165Z,19.75
2022-11-26T23:35:11.515Z,20.23
2022-11-26T23:37:39.529Z,18.30
2022-11-26T23:40:07.809Z,18.83
2022-11-26T23:42:35.260Z,16.77
2022-11-26T23:45:03.222Z,21.00
2022-11-26T23:47:30.535Z,21.00
2022-11-26T23:50:00.841Z,17.85
2022-11-26T23:52:28.591Z,16.23
2022-11-26T23:54:55.930Z,17.73
2022-11-26T23:57:23.275Z,16.42
2022-11-26T23:59:51.064Z,14.98
